Terminal Aerodrome Forecast
Issued by NWS Bismarck, ND

Home | Current Version | Previous Version | Graphics & Text | Print | Product List | Glossary On
Versions: 1 2 3 4 5 6 7 8 9 10 11 12 13 14 15 16 17 18 19 20 21 22
000
FTUS43 KBIS 271500 AAA
TAFBIS
TAF AMD
KBIS 271501Z 2715/2812 29010KT P6SM BKN100
     FM271600 27012G23KT P6SM BKN025
     FM271900 27020G29KT P6SM SCT025 BKN035 OVC070
     FM280100 31016G22KT 6SM BR VCSH SCT015 OVC025
     FM280600 31014G20KT 6SM BR OVC012=

USA.gov is the U.S. government's official web portal to all federal, state and local government web resources and services.